Terminal Aerodrome Forecast
Issued by NWS Wilmington, OH

Current Version | Previous Version | Graphics & Text | Print | Product List | Glossary On
Versions: 1 2 3 4 5 6 7 8 9 10 11 12 13 14 15 16
000
FTUS41 KILN 252300
TAFILN
TAF
KILN 252330Z 2600/2624 13005KT P6SM FEW060
     FM260600 00000KT 4SM BR SKC
      TEMPO 2609/2612 2SM BR
     FM261300 17004KT P6SM SKC
     FM261500 20005KT P6SM SCT035 SCT250
     FM262300 23005KT P6SM SCT250=

USA.gov is the U.S. government's official web portal to all federal, state and local government web resources and services.